Time;durP1;ratioP1;P1;durP2;ratioP2;P2;SDS_P1;SDS_P2;PMS_P1;PMS_P2;Temp;Humidity;BMP_temperature;BMP_pressure;BME280_temperature;BME280_humidity;BME280_pressure;Samples;Min_cycle;Max_cycle;Signal;HPM_P1;HPM_P2
2023/06/12 00:02:13;;;;;;;;;;;;;;;16.21;92.65;95705.41;5070429;28;19932;-74
2023/06/12 00:04:39;;;;;;;;;;;;;;;16.18;95.33;95692.59;5063022;28;20309;-73
2023/06/12 00:07:06;;;;;;;;;;;;;;;16.35;93.32;95701.59;5066135;28;19933;-74
2023/06/12 00:09:33;;;;;;;;;;;;;;;16.38;92.89;95697.88;5074286;28;20400;-74
2023/06/12 00:11:59;;;;;;;;;;;;;;;16.37;92.22;95698.84;5075004;28;20393;-74
2023/06/12 00:14:26;;;;;;;;;;;;;;;16.36;92.44;95700.63;5075440;28;19989;-72
2023/06/12 00:16:52;;;;;;;;;;;;;;;16.27;93.04;95693.56;5081042;28;19928;-73
2023/06/12 00:19:20;;;;;;;;;;;;;;;16.22;94.13;95701.00;5075097;28;19924;-74
2023/06/12 00:21:46;;;;;;;;;;;;;;;16.24;93.82;95698.22;5078630;28;20445;-74
2023/06/12 00:24:13;;;;;;;;;;;;;;;16.25;93.38;95695.50;5073166;28;20333;-73
2023/06/12 00:26:39;;;;;;;;;;;;;;;16.27;92.81;95693.56;5077466;28;19925;-74
2023/06/12 00:29:05;;;;;;;;;;;;;;;16.28;92.57;95697.88;5068389;28;19929;-74
2023/06/12 00:31:31;;;;;;;;;;;;;;;16.27;91.96;95697.97;5087508;28;20398;-74
2023/06/12 00:33:58;;;;;;;;;;;;;;;16.20;92.56;95701.13;5071750;28;20288;-74
2023/06/12 00:36:26;;;;;;;;;;;;;;;16.12;93.21;95694.91;5083624;28;19936;-71
2023/06/12 00:38:53;;;;;;;;;;;;;;;16.15;94.42;95689.41;5080669;28;19924;-73
2023/06/12 00:41:19;;;;;;;;;;;;;;;15.94;96.05;95692.06;5085269;28;19928;-74
2023/06/12 00:43:45;;;;;;;;;;;;;;;16.05;95.18;95691.97;5080653;28;19947;-74
2023/06/12 00:46:12;;;;;;;;;;;;;;;16.11;95.48;95693.25;5079110;28;19970;-74
2023/06/12 00:48:39;;;;;;;;;;;;;;;16.10;95.56;95695.03;5082640;28;19928;-72
2023/06/12 00:51:08;;;;;;;;;;;;;;;16.11;95.24;95690.66;5084315;28;20007;-74
2023/06/12 00:53:36;;;;;;;;;;;;;;;16.10;96.73;95694.22;5076828;28;19930;-73
2023/06/12 00:56:02;;;;;;;;;;;;;;;16.13;96.21;95693.94;5074095;28;19925;-74
2023/06/12 00:58:28;;;;;;;;;;;;;;;16.14;96.59;95691.22;5083814;28;19924;-74
2023/06/12 01:00:56;;;;;;;;;;;;;;;16.15;96.22;95705.09;5076748;28;19936;-74
2023/06/12 01:03:24;;;;;;;;;;;;;;;16.16;96.51;95699.72;5071400;28;19932;-74
2023/06/12 01:05:51;;;;;;;;;;;;;;;16.11;96.17;95691.47;5076924;28;19929;-74
2023/06/12 01:08:19;;;;;;;;;;;;;;;16.07;96.76;95697.09;5069957;28;19978;-74
2023/06/12 01:10:52;;;;;;;;;;;;;;;16.00;98.18;95695.97;5083067;28;19928;-73
2023/06/12 01:13:19;;;;;;;;;;;;;;;15.94;98.39;95692.06;5077627;28;19924;-74
2023/06/12 01:15:46;;;;;;;;;;;;;;;15.92;97.42;95700.06;5077552;28;20010;-74
2023/06/12 01:18:12;;;;;;;;;;;;;;;15.90;98.43;95698.53;5081642;28;20298;-73
2023/06/12 01:20:40;;;;;;;;;;;;;;;15.87;98.21;95688.31;5066448;28;19931;-74
2023/06/12 01:23:11;;;;;;;;;;;;;;;15.83;98.27;95690.38;5074735;28;19947;-74
2023/06/12 01:25:59;;;;;;;;;;;;;;;15.66;100.00;95697.03;5068495;28;20300;-74
2023/06/12 01:28:37;;;;;;;;;;;;;;;15.61;100.00;95691.34;5070667;28;20350;-74
2023/06/12 01:31:13;;;;;;;;;;;;;;;15.48;100.00;95693.31;5071839;28;19933;-74
2023/06/12 01:33:43;;;;;;;;;;;;;;;15.51;100.00;95697.47;5073977;28;19929;-73
2023/06/12 01:36:11;;;;;;;;;;;;;;;15.51;100.00;95695.69;5064520;28;19928;-74
2023/06/12 01:38:39;;;;;;;;;;;;;;;15.51;100.00;95690.47;5074236;28;19930;-74
2023/06/12 01:41:05;;;;;;;;;;;;;;;15.49;97.18;95682.75;5079895;28;20036;-74
2023/06/12 01:43:32;;;;;;;;;;;;;;;15.30;96.42;95687.84;5076733;28;19977;-74
2023/06/12 01:45:58;;;;;;;;;;;;;;;15.02;100.00;95686.69;5074055;28;19924;-74
2023/06/12 01:48:24;;;;;;;;;;;;;;;14.75;100.00;95681.94;5069150;28;20435;-72
2023/06/12 01:50:52;;;;;;;;;;;;;;;14.62;100.00;95682.09;5073073;28;19929;-73
2023/06/12 01:53:18;;;;;;;;;;;;;;;14.69;100.00;95675.44;5080877;28;19936;-74
2023/06/12 01:55:45;;;;;;;;;;;;;;;14.52;100.00;95681.19;5068027;28;19928;-72
2023/06/12 01:58:11;;;;;;;;;;;;;;;14.52;100.00;95682.00;5081520;28;19967;-73
2023/06/12 02:00:37;;;;;;;;;;;;;;;14.60;100.00;95683.16;5064042;28;19926;-73
2023/06/12 02:03:04;;;;;;;;;;;;;;;14.54;100.00;95683.69;5067515;28;19979;-74
2023/06/12 02:05:30;;;;;;;;;;;;;;;14.64;100.00;95682.78;5076994;28;19938;-74
2023/06/12 02:07:58;;;;;;;;;;;;;;;14.64;100.00;95684.56;5072927;28;19929;-74
2023/06/12 02:10:24;;;;;;;;;;;;;;;14.71;100.00;95678.75;5084359;28;19932;-74
2023/06/12 02:12:50;;;;;;;;;;;;;;;14.76;100.00;95676.59;5074118;28;20395;-74
2023/06/12 02:15:17;;;;;;;;;;;;;;;14.70;100.00;95684.09;5074986;28;19963;-74
2023/06/12 02:17:43;;;;;;;;;;;;;;;14.69;100.00;95675.44;5076652;28;19935;-74
2023/06/12 02:20:10;;;;;;;;;;;;;;;14.62;100.00;95676.06;5076136;28;19928;-73
2023/06/12 02:22:36;;;;;;;;;;;;;;;14.53;100.00;95682.81;5077204;28;19928;-74
2023/06/12 02:25:04;;;;;;;;;;;;;;;14.44;100.00;95683.53;5068252;28;19928;-73
2023/06/12 02:27:30;;;;;;;;;;;;;;;14.37;100.00;95680.59;5079470;28;20298;-73
2023/06/12 02:29:56;;;;;;;;;;;;;;;14.18;100.00;95689.03;5073472;28;19966;-73
2023/06/12 02:32:22;;;;;;;;;;;;;;;14.36;100.00;95685.94;5077962;28;19932;-74
2023/06/12 02:34:49;;;;;;;;;;;;;;;14.22;100.00;95690.44;5073170;28;19925;-74
2023/06/12 02:37:16;;;;;;;;;;;;;;;14.38;100.00;95691.84;5079092;28;20085;-74
2023/06/12 02:39:43;;;;;;;;;;;;;;;14.26;100.00;95680.59;5076163;28;19978;-74
2023/06/12 02:42:10;;;;;;;;;;;;;;;14.24;100.00;95679.91;5076899;28;20545;-74
2023/06/12 02:44:37;;;;;;;;;;;;;;;14.16;100.00;95685.69;5072858;28;19928;-74
2023/06/12 02:47:03;;;;;;;;;;;;;;;14.17;100.00;95682.16;5079159;28;19939;-74
2023/06/12 02:49:30;;;;;;;;;;;;;;;14.17;100.00;95684.78;5080128;28;19931;-73
2023/06/12 02:51:57;;;;;;;;;;;;;;;14.09;100.00;95679.34;5083856;28;20307;-73
2023/06/12 02:54:23;;;;;;;;;;;;;;;14.13;100.00;95685.97;5072494;28;19932;-74
2023/06/12 02:56:50;;;;;;;;;;;;;;;13.92;100.00;95682.41;5069343;28;19928;-74
2023/06/12 02:59:19;;;;;;;;;;;;;;;13.89;100.00;95683.47;5076093;28;19925;-72
2023/06/12 03:01:45;;;;;;;;;;;;;;;14.00;100.00;95696.50;5085009;28;19928;-72
2023/06/12 03:04:12;;;;;;;;;;;;;;;14.03;100.00;95698.88;5068625;28;19928;-73
2023/06/12 03:06:39;;;;;;;;;;;;;;;14.06;100.00;95703.00;5084113;28;19931;-73
2023/06/12 03:09:08;;;;;;;;;;;;;;;14.07;100.00;95696.84;5064110;28;19943;-73
2023/06/12 03:11:35;;;;;;;;;;;;;;;13.91;100.00;95694.63;5065310;28;19934;-73
2023/06/12 03:14:01;;;;;;;;;;;;;;;13.97;100.00;95690.69;5063081;28;20291;-73
2023/06/12 03:16:30;;;;;;;;;;;;;;;13.97;100.00;95696.72;5085262;28;20337;-73
2023/06/12 03:18:57;;;;;;;;;;;;;;;13.64;100.00;95694.09;5064742;28;19924;-74
2023/06/12 03:21:23;;;;;;;;;;;;;;;13.42;100.00;95700.97;5079662;28;19935;-73
2023/06/12 03:23:49;;;;;;;;;;;;;;;13.30;100.00;95700.09;5076374;28;19930;-73
2023/06/12 03:26:16;;;;;;;;;;;;;;;13.43;100.00;95707.00;5076451;28;19932;-74
2023/06/12 03:28:42;;;;;;;;;;;;;;;13.44;100.00;95704.25;5065768;28;19925;-74
2023/06/12 03:31:09;;;;;;;;;;;;;;;13.60;100.00;95703.91;5064507;28;19925;-73
2023/06/12 03:33:36;;;;;;;;;;;;;;;13.72;100.00;95705.63;5071318;28;19974;-73
2023/06/12 03:36:03;;;;;;;;;;;;;;;13.83;100.00;95710.00;5062370;28;20398;-73
2023/06/12 03:38:30;;;;;;;;;;;;;;;13.68;100.00;95713.75;5061802;28;19925;-73
2023/06/12 03:40:56;;;;;;;;;;;;;;;13.60;100.00;95713.50;5073632;28;19924;-72
2023/06/12 03:43:22;;;;;;;;;;;;;;;13.48;100.00;95723.91;5075312;28;19961;-73
2023/06/12 03:45:48;;;;;;;;;;;;;;;13.43;100.00;95718.22;5080286;28;19928;-73
2023/06/12 03:48:15;;;;;;;;;;;;;;;13.45;100.00;95715.50;5079127;28;19935;-72
2023/06/12 03:50:42;;;;;;;;;;;;;;;13.54;100.00;95717.41;5065112;28;20334;-72
2023/06/12 03:53:08;;;;;;;;;;;;;;;13.63;100.00;95721.09;5076784;28;19927;-73
2023/06/12 03:55:35;;;;;;;;;;;;;;;13.64;100.00;95725.34;5081008;28;20383;-72
2023/06/12 03:58:02;;;;;;;;;;;;;;;13.52;100.00;95727.09;5068837;28;19929;-71
2023/06/12 04:00:29;;;;;;;;;;;;;;;13.47;100.00;95730.06;5064479;28;19929;-73
2023/06/12 04:02:55;;;;;;;;;;;;;;;13.53;100.00;95733.94;5060819;28;19974;-73
2023/06/12 04:05:22;;;;;;;;;;;;;;;13.42;100.00;95741.72;5080096;28;19932;-73
2023/06/12 04:07:49;;;;;;;;;;;;;;;13.12;100.00;95748.22;5074429;28;20007;-73
2023/06/12 04:10:15;;;;;;;;;;;;;;;13.27;100.00;95739.34;5070328;28;20333;-73
2023/06/12 04:12:42;;;;;;;;;;;;;;;13.36;100.00;95744.81;5075387;28;19925;-73
2023/06/12 04:15:08;;;;;;;;;;;;;;;13.47;100.00;95743.06;5070276;28;19932;-72
2023/06/12 04:17:35;;;;;;;;;;;;;;;13.56;100.00;95742.34;5067908;28;19935;-71
2023/06/12 04:20:02;;;;;;;;;;;;;;;13.51;100.00;95746.25;5078442;28;20023;-73
2023/06/12 04:22:29;;;;;;;;;;;;;;;13.55;100.00;95753.72;5068873;28;19936;-75
2023/06/12 04:25:00;;;;;;;;;;;;;;;13.63;100.00;95747.09;5071417;28;20441;-75
2023/06/12 04:27:28;;;;;;;;;;;;;;;13.67;100.00;95748.53;5076374;28;20014;-73
2023/06/12 04:29:56;;;;;;;;;;;;;;;13.66;100.00;95752.91;5065732;28;19932;-72
2023/06/12 04:32:23;;;;;;;;;;;;;;;13.74;100.00;95752.34;5071360;28;19932;-73
2023/06/12 04:34:50;;;;;;;;;;;;;;;13.74;100.00;95745.34;5071496;28;19958;-69
2023/06/12 04:37:18;;;;;;;;;;;;;;;13.80;100.00;95754.47;5071825;28;20346;-73
2023/06/12 04:39:45;;;;;;;;;;;;;;;13.93;100.00;95749.16;5069838;28;20012;-72
2023/06/12 04:42:16;;;;;;;;;;;;;;;14.10;100.00;95753.91;5069727;28;19925;-73
2023/06/12 04:44:43;;;;;;;;;;;;;;;14.25;100.00;95757.94;5070682;28;20391;-73
2023/06/12 04:47:10;;;;;;;;;;;;;;;14.44;100.00;95761.72;5070660;28;20517;-73
2023/06/12 04:49:37;;;;;;;;;;;;;;;14.54;100.00;95752.25;5078697;28;20472;-73
2023/06/12 04:52:05;;;;;;;;;;;;;;;14.70;100.00;95755.31;5079478;28;19932;-73
2023/06/12 04:54:35;;;;;;;;;;;;;;;14.75;100.00;95754.94;5062294;28;20286;-73
2023/06/12 04:57:02;;;;;;;;;;;;;;;14.85;100.00;95755.84;5076680;28;19928;-73
2023/06/12 04:59:30;;;;;;;;;;;;;;;14.93;100.00;95755.25;5070495;28;19953;-73
2023/06/12 05:01:56;;;;;;;;;;;;;;;14.87;100.00;95750.50;5055954;28;19947;-74
2023/06/12 05:04:23;;;;;;;;;;;;;;;14.85;100.00;95755.03;5073722;28;20001;-73
2023/06/12 05:06:49;;;;;;;;;;;;;;;14.92;100.00;95756.19;5070241;28;19970;-73
2023/06/12 05:09:15;;;;;;;;;;;;;;;15.05;100.00;95754.25;5064571;28;19925;-73
2023/06/12 05:11:42;;;;;;;;;;;;;;;15.23;100.00;95754.53;5072487;28;20401;-74
2023/06/12 05:14:08;;;;;;;;;;;;;;;15.41;100.00;95752.22;5059325;28;19986;-74
2023/06/12 05:16:35;;;;;;;;;;;;;;;15.56;100.00;95750.94;5062306;28;19932;-74
2023/06/12 05:19:02;;;;;;;;;;;;;;;15.71;100.00;95757.53;5067174;28;19931;-74
2023/06/12 05:21:28;;;;;;;;;;;;;;;15.85;100.00;95751.16;5066454;28;19924;-73
2023/06/12 05:23:55;;;;;;;;;;;;;;;16.02;100.00;95754.09;5079591;28;19935;-69
2023/06/12 05:26:21;;;;;;;;;;;;;;;16.19;100.00;95754.34;5063391;28;19924;-73
2023/06/12 05:28:48;;;;;;;;;;;;;;;16.37;100.00;95758.97;5060589;28;19978;-73
2023/06/12 05:31:14;;;;;;;;;;;;;;;16.53;100.00;95761.06;5068776;28;19932;-73
2023/06/12 05:33:42;;;;;;;;;;;;;;;16.73;100.00;95756.72;5074781;28;20047;-73
2023/06/12 05:36:08;;;;;;;;;;;;;;;16.93;100.00;95758.44;5061680;28;19928;-73
2023/06/12 05:38:35;;;;;;;;;;;;;;;17.12;100.00;95760.25;5062081;28;20437;-73
2023/06/12 05:41:01;;;;;;;;;;;;;;;17.28;100.00;95762.31;5071876;28;19930;-70
2023/06/12 05:43:27;;;;;;;;;;;;;;;17.41;100.00;95752.41;5064632;28;19928;-71
2023/06/12 05:45:53;;;;;;;;;;;;;;;17.66;100.00;95757.06;5068881;28;19929;-71
2023/06/12 05:48:20;;;;;;;;;;;;;;;17.96;100.00;95752.63;5071704;28;19928;-71
2023/06/12 05:50:47;;;;;;;;;;;;;;;18.07;100.00;95749.84;5071132;28;19924;-71
2023/06/12 05:53:14;;;;;;;;;;;;;;;18.10;100.00;95754.81;5065217;28;20441;-71
2023/06/12 05:55:40;;;;;;;;;;;;;;;18.15;100.00;95759.59;5063114;28;19928;-71
2023/06/12 05:58:06;;;;;;;;;;;;;;;18.17;100.00;95756.81;5078603;28;19928;-71
2023/06/12 06:00:32;;;;;;;;;;;;;;;18.18;100.00;95755.88;5073147;28;19928;-72
2023/06/12 06:03:00;;;;;;;;;;;;;;;18.37;100.00;95753.19;5066388;28;19931;-73
2023/06/12 06:05:26;;;;;;;;;;;;;;;18.43;97.66;95755.22;5077078;28;19928;-73
2023/06/12 06:07:54;;;;;;;;;;;;;;;18.71;96.33;95753.44;5061739;28;19925;-74
2023/06/12 06:10:20;;;;;;;;;;;;;;;18.69;90.60;95755.38;5071079;28;19924;-75
2023/06/12 06:12:47;;;;;;;;;;;;;;;18.84;89.67;95753.13;5067676;28;19944;-75
2023/06/12 06:15:13;;;;;;;;;;;;;;;19.04;95.06;95753.81;5069205;28;19924;-74
2023/06/12 06:17:39;;;;;;;;;;;;;;;19.25;92.37;95756.16;5078340;28;21069;-73
2023/06/12 06:20:07;;;;;;;;;;;;;;;19.74;90.55;95761.84;5075883;28;20019;-74
2023/06/12 06:22:34;;;;;;;;;;;;;;;19.95;89.12;95764.97;5080577;28;19928;-74
2023/06/12 06:25:01;;;;;;;;;;;;;;;20.08;86.11;95761.09;5068835;28;20632;-74
2023/06/12 06:27:27;;;;;;;;;;;;;;;20.08;83.65;95766.34;5060250;28;19932;-74
2023/06/12 06:29:54;;;;;;;;;;;;;;;20.09;87.35;95770.63;5064726;28;19935;-74
2023/06/12 06:32:20;;;;;;;;;;;;;;;20.17;79.89;95774.13;5064143;28;19982;-74
2023/06/12 06:34:46;;;;;;;;;;;;;;;20.17;79.66;95768.03;5074002;28;19925;-74
2023/06/12 06:37:13;;;;;;;;;;;;;;;20.40;79.22;95777.06;5075767;28;19932;-72
2023/06/12 06:39:40;;;;;;;;;;;;;;;20.45;78.35;95776.56;5078607;28;19970;-73
2023/06/12 06:42:08;;;;;;;;;;;;;;;20.17;79.20;95774.13;5067586;28;19931;-74
2023/06/12 06:44:34;;;;;;;;;;;;;;;20.52;80.16;95773.19;5074510;28;19935;-73
2023/06/12 06:47:00;;;;;;;;;;;;;;;20.66;80.24;95779.66;5078125;28;19935;-74
2023/06/12 06:49:27;;;;;;;;;;;;;;;20.74;76.56;95777.06;5072867;28;19932;-74
2023/06/12 06:51:53;;;;;;;;;;;;;;;21.05;78.38;95781.75;5076875;28;20416;-72
2023/06/12 06:54:19;;;;;;;;;;;;;;;21.07;77.32;95774.53;5069526;28;19983;-72
2023/06/12 06:56:47;;;;;;;;;;;;;;;21.10;75.37;95776.00;5058866;28;19943;-73
2023/06/12 06:59:15;;;;;;;;;;;;;;;21.30;72.47;95763.38;5071096;28;19924;-74
2023/06/12 07:01:41;;;;;;;;;;;;;;;21.45;75.67;95774.97;5083463;28;20378;-73
2023/06/12 07:04:07;;;;;;;;;;;;;;;21.45;76.35;95774.97;5076979;28;20272;-72
2023/06/12 07:06:34;;;;;;;;;;;;;;;21.73;80.08;95767.56;5075910;28;19930;-72
2023/06/12 07:09:00;;;;;;;;;;;;;;;21.83;73.40;95772.66;5070187;28;19963;-73
2023/06/12 07:11:26;;;;;;;;;;;;;;;21.73;69.07;95770.22;5079030;28;20052;-72
2023/06/12 07:13:53;;;;;;;;;;;;;;;21.78;73.31;95769.69;5065818;28;19924;-73
2023/06/12 07:16:20;;;;;;;;;;;;;;;21.98;73.26;95771.00;5073663;28;20594;-72
2023/06/12 07:18:47;;;;;;;;;;;;;;;22.05;74.28;95765.88;5071364;28;19978;-73
2023/06/12 07:21:14;;;;;;;;;;;;;;;22.12;75.01;95769.50;5075371;28;20268;-73
2023/06/12 07:23:40;;;;;;;;;;;;;;;22.23;68.11;95775.28;5074208;28;19935;-72
2023/06/12 07:26:06;;;;;;;;;;;;;;;22.28;71.22;95764.19;5065085;28;20298;-74
2023/06/12 07:28:33;;;;;;;;;;;;;;;22.39;71.69;95773.56;5072869;28;19931;-73
2023/06/12 07:30:59;;;;;;;;;;;;;;;22.58;69.07;95757.38;5077117;28;19928;-75
2023/06/12 07:33:27;;;;;;;;;;;;;;;22.75;68.22;95766.03;5067533;28;19929;-74
2023/06/12 07:35:53;;;;;;;;;;;;;;;22.91;67.42;95763.34;5063663;28;19932;-75
2023/06/12 07:38:20;;;;;;;;;;;;;;;23.01;67.77;95757.03;5076576;28;19929;-75
2023/06/12 07:40:46;;;;;;;;;;;;;;;23.21;67.06;95763.50;5062800;28;20015;-75
2023/06/12 07:43:12;;;;;;;;;;;;;;;22.99;61.68;95756.38;5071629;28;20002;-75
2023/06/12 07:45:38;;;;;;;;;;;;;;;23.49;69.96;95760.38;5075952;28;19954;-74
2023/06/12 07:48:05;;;;;;;;;;;;;;;23.31;61.71;95753.53;5078245;28;20285;-74
2023/06/12 07:50:33;;;;;;;;;;;;;;;23.52;62.57;95766.13;5073224;28;20324;-73
2023/06/12 07:52:59;;;;;;;;;;;;;;;23.39;57.97;95756.13;5075670;28;19936;-73
2023/06/12 07:55:26;;;;;;;;;;;;;;;23.31;57.71;95758.81;5063346;28;19935;-73
2023/06/12 07:57:53;;;;;;;;;;;;;;;22.92;62.56;95748.34;5073140;28;19974;-73
2023/06/12 08:00:20;;;;;;;;;;;;;;;22.99;58.41;95749.28;5074217;28;19998;-73
2023/06/12 08:02:58;;;;;;;;;;;;;;;23.16;61.28;95753.47;5073366;28;20431;-74
2023/06/12 08:05:24;;;;;;;;;;;;;;;23.18;59.51;95750.66;5081651;28;19931;-74
2023/06/12 08:07:52;;;;;;;;;;;;;;;23.12;57.83;95748.72;5072571;28;19929;-74
2023/06/12 08:10:18;;;;;;;;;;;;;;;23.23;60.02;95742.22;5076093;28;19928;-74
2023/06/12 08:12:45;;;;;;;;;;;;;;;23.27;57.38;95749.59;5069800;28;19937;-74
2023/06/12 08:15:12;;;;;;;;;;;;;;;23.17;53.19;95746.34;5073000;28;19931;-74
2023/06/12 08:17:41;;;;;;;;;;;;;;;23.12;55.67;95754.00;5077693;28;19963;-73
2023/06/12 08:20:09;;;;;;;;;;;;;;;23.15;57.34;95748.38;5081017;28;19924;-72
2023/06/12 08:22:36;;;;;;;;;;;;;;;23.04;58.12;95749.59;5075527;28;19936;-73
2023/06/12 08:25:04;;;;;;;;;;;;;;;22.91;57.58;95749.28;5063183;28;19924;-72
2023/06/12 08:27:31;;;;;;;;;;;;;;;22.80;57.55;95753.13;5071143;28;19928;-73
2023/06/12 08:29:57;;;;;;;;;;;;;;;22.83;58.26;95751.97;5071887;28;20467;-73
2023/06/12 08:32:23;;;;;;;;;;;;;;;22.91;53.30;95744.84;5084171;28;19936;-73
2023/06/12 08:34:50;;;;;;;;;;;;;;;23.25;57.49;95748.13;5065883;28;19933;-73
2023/06/12 08:37:17;;;;;;;;;;;;;;;23.17;58.85;95746.34;5084573;28;19924;-74
2023/06/12 08:39:43;;;;;;;;;;;;;;;23.56;52.68;95732.22;5077696;28;19932;-74
2023/06/12 08:42:15;;;;;;;;;;;;;;;23.67;49.90;95731.84;5079075;28;19935;-78
2023/06/12 08:44:43;;;;;;;;;;;;;;;23.80;57.19;95744.44;5078236;28;19924;-73
2023/06/12 08:47:10;;;;;;;;;;;;;;;23.94;48.58;95737.53;5081926;28;19928;-77
2023/06/12 08:49:37;;;;;;;;;;;;;;;23.90;45.58;95739.72;5073248;28;19932;-77
2023/06/12 08:52:04;;;;;;;;;;;;;;;23.99;47.00;95740.44;5064800;28;19928;-78
2023/06/12 08:54:33;;;;;;;;;;;;;;;23.71;45.16;95729.66;5078887;28;19935;-78
2023/06/12 08:57:00;;;;;;;;;;;;;;;23.65;45.93;95731.13;5079595;28;19924;-78
2023/06/12 08:59:28;;;;;;;;;;;;;;;24.04;49.93;95733.63;5080863;28;19935;-78
2023/06/12 09:01:55;;;;;;;;;;;;;;;24.25;46.44;95737.38;5084199;28;20337;-78
2023/06/12 09:04:28;;;;;;;;;;;;;;;23.73;45.15;95733.78;5082217;28;20330;-78
2023/06/12 09:07:01;;;;;;;;;;;;;;;23.53;47.00;95735.22;5078011;28;20736;-78
2023/06/12 09:09:45;;;;;;;;;;;;;;;23.84;51.07;95727.19;5072459;28;20294;-77
2023/06/12 09:12:12;;;;;;;;;;;;;;;23.79;42.55;95734.88;5081434;28;19924;-78
2023/06/12 09:14:41;;;;;;;;;;;;;;;23.72;46.72;95729.47;5067059;28;19928;-78
2023/06/12 09:17:08;;;;;;;;;;;;;;;23.75;47.49;95723.81;5080012;28;19932;-78
2023/06/12 09:19:37;;;;;;;;;;;;;;;23.40;46.66;95725.25;5076940;28;19935;-78
2023/06/12 09:22:04;;;;;;;;;;;;;;;23.74;48.26;95726.66;5083654;28;19967;-78
2023/06/12 09:24:30;;;;;;;;;;;;;;;23.64;47.34;95730.31;5074748;28;19931;-78
2023/06/12 09:26:57;;;;;;;;;;;;;;;23.65;47.05;95724.03;5081541;28;19928;-78
2023/06/12 09:29:26;;;;;;;;;;;;;;;23.86;48.30;95728.69;5076583;28;19943;-78
2023/06/12 09:31:54;;;;;;;;;;;;;;;24.17;44.57;95725.06;5073837;28;19932;-78
2023/06/12 09:34:21;;;;;;;;;;;;;;;24.48;45.44;95722.28;5080863;28;19924;-78
2023/06/12 09:36:48;;;;;;;;;;;;;;;24.72;45.52;95720.31;5071529;28;20392;-77
2023/06/12 09:39:15;;;;;;;;;;;;;;;24.60;45.63;95731.38;5075820;28;20041;-77
2023/06/12 09:41:48;;;;;;;;;;;;;;;24.48;44.63;95724.09;5075468;28;20019;-77
2023/06/12 09:44:15;;;;;;;;;;;;;;;24.43;43.46;95719.34;5066859;28;19931;-77
2023/06/12 09:46:41;;;;;;;;;;;;;;;24.46;44.38;95724.28;5087812;28;19959;-77
2023/06/12 09:49:12;;;;;;;;;;;;;;;24.68;45.50;95719.06;5080823;28;20294;-77
2023/06/12 09:51:39;;;;;;;;;;;;;;;24.43;41.83;95735.22;5063909;28;19925;-76
2023/06/12 09:54:05;;;;;;;;;;;;;;;24.16;42.60;95736.66;5073652;28;19932;-77
2023/06/12 09:56:32;;;;;;;;;;;;;;;23.88;43.84;95723.22;5064924;28;20442;-77
2023/06/12 09:58:59;;;;;;;;;;;;;;;24.17;47.00;95737.47;5077811;28;19929;-77
2023/06/12 10:01:27;;;;;;;;;;;;;;;24.52;47.40;95738.63;5078041;28;19931;-77
2023/06/12 10:03:56;;;;;;;;;;;;;;;24.55;46.06;95731.13;5080378;28;19953;-77
2023/06/12 10:06:27;;;;;;;;;;;;;;;24.69;43.55;95733.94;5068266;28;21275;-77
2023/06/12 10:08:54;;;;;;;;;;;;;;;24.66;44.08;95729.00;5059565;28;19928;-77
2023/06/12 10:11:21;;;;;;;;;;;;;;;24.71;41.21;95722.16;5074844;28;19955;-77
2023/06/12 10:13:48;;;;;;;;;;;;;;;24.76;46.02;95721.59;5070629;28;20399;-77
2023/06/12 10:16:15;;;;;;;;;;;;;;;24.89;52.22;95724.41;5070225;28;19929;-74
2023/06/12 10:18:43;;;;;;;;;;;;;;;24.63;44.55;95715.13;5063788;28;20015;-77
2023/06/12 10:21:10;;;;;;;;;;;;;;;24.41;44.76;95720.56;5068210;28;19929;-77
2023/06/12 10:23:38;;;;;;;;;;;;;;;24.68;47.42;95722.53;5076920;28;19974;-77
2023/06/12 10:26:04;;;;;;;;;;;;;;;24.87;49.63;95707.88;5081466;28;19928;-77
2023/06/12 10:28:31;;;;;;;;;;;;;;;24.90;43.79;95707.50;5071101;28;19932;-78
2023/06/12 10:31:11;;;;;;;;;;;;;;;25.22;43.82;95702.78;5067133;28;20454;-78
2023/06/12 10:33:38;;;;;;;;;;;;;;;24.78;45.53;95709.00;5069528;28;20485;-75
2023/06/12 10:36:09;;;;;;;;;;;;;;;24.84;48.37;95713.53;5073991;28;19977;-76
2023/06/12 10:38:45;;;;;;;;;;;;;;;23.95;44.87;95718.81;5082470;28;19931;-75
2023/06/12 10:41:11;;;;;;;;;;;;;;;23.82;47.35;95708.88;5078240;28;19967;-76
2023/06/12 10:43:39;;;;;;;;;;;;;;;23.97;47.21;95711.53;5078931;28;19928;-77
2023/06/12 10:46:11;;;;;;;;;;;;;;;24.41;41.51;95702.84;5076441;28;19924;-77
2023/06/12 10:48:45;;;;;;;;;;;;;;;24.52;41.13;95693.59;5079961;28;19939;-76
2023/06/12 10:51:11;;;;;;;;;;;;;;;25.06;48.23;95687.91;5071249;28;19924;-76
2023/06/12 10:53:42;;;;;;;;;;;;;;;25.16;41.42;95692.94;5065243;28;19933;-76
2023/06/12 10:56:11;;;;;;;;;;;;;;;25.12;38.35;95681.88;5064610;28;20268;-76
2023/06/12 10:58:38;;;;;;;;;;;;;;;24.87;42.35;95684.84;5074653;28;19928;-76
2023/06/12 11:01:08;;;;;;;;;;;;;;;24.47;43.09;95691.50;5069613;28;19951;-74
2023/06/12 11:03:37;;;;;;;;;;;;;;;24.60;42.92;95685.56;5064810;28;20437;-74
2023/06/12 11:06:08;;;;;;;;;;;;;;;24.74;42.83;95687.38;5076083;28;19933;-75
2023/06/12 11:08:34;;;;;;;;;;;;;;;25.11;42.47;95672.31;5065771;28;20007;-76
2023/06/12 11:11:06;;;;;;;;;;;;;;;25.23;39.94;95670.78;5073934;28;19970;-76
2023/06/12 11:13:35;;;;;;;;;;;;;;;25.00;40.49;95678.06;5066946;28;20003;-77
2023/06/12 11:16:01;;;;;;;;;;;;;;;25.13;46.04;95674.75;5081460;28;20003;-76
2023/06/12 11:18:28;;;;;;;;;;;;;;;25.16;44.38;95671.72;5074490;28;19924;-78
2023/06/12 11:20:55;;;;;;;;;;;;;;;25.04;41.81;95674.84;5061949;28;19936;-75
2023/06/12 11:23:22;;;;;;;;;;;;;;;24.90;40.28;95670.41;5069529;28;19924;-74
2023/06/12 11:25:49;;;;;;;;;;;;;;;25.14;42.76;95677.22;5071466;28;19931;-74
2023/06/12 11:28:16;;;;;;;;;;;;;;;25.02;44.08;95674.19;5070844;28;19933;-75
2023/06/12 11:30:48;;;;;;;;;;;;;;;24.94;46.26;95668.22;5063391;28;19992;-76
2023/06/12 11:33:16;;;;;;;;;;;;;;;25.17;44.38;95671.53;5075965;28;19930;-76
2023/06/12 11:35:43;;;;;;;;;;;;;;;25.19;47.47;95669.50;5081280;28;19978;-77
2023/06/12 11:38:09;;;;;;;;;;;;;;;25.29;44.98;95680.63;5081839;28;19978;-78
2023/06/12 11:40:35;;;;;;;;;;;;;;;25.20;41.75;95665.84;5079176;28;19932;-76
2023/06/12 11:43:02;;;;;;;;;;;;;;;25.32;39.17;95671.47;5070647;28;19925;-77
2023/06/12 11:45:30;;;;;;;;;;;;;;;25.17;41.48;95662.75;5081552;28;19932;-77
2023/06/12 11:47:58;;;;;;;;;;;;;;;25.00;41.64;95660.34;5082300;28;19954;-77
2023/06/12 11:50:24;;;;;;;;;;;;;;;24.69;42.89;95673.03;5072590;28;19932;-76
2023/06/12 11:52:51;;;;;;;;;;;;;;;24.92;40.28;95656.97;5072901;28;20379;-77
2023/06/12 11:55:17;;;;;;;;;;;;;;;24.87;40.19;95654.88;5069312;28;20339;-77
2023/06/12 11:57:46;;;;;;;;;;;;;;;25.30;46.48;95650.44;5076562;28;19924;-76
2023/06/12 12:00:14;;;;;;;;;;;;;;;25.33;41.86;95649.25;5080012;28;19924;-76
2023/06/12 12:02:41;;;;;;;;;;;;;;;25.06;46.04;95637.53;5075946;28;20286;-73
2023/06/12 12:05:11;;;;;;;;;;;;;;;24.98;40.77;95649.09;5078390;28;20340;-77
2023/06/12 12:07:38;;;;;;;;;;;;;;;24.71;41.76;95650.66;5075504;28;20349;-77
2023/06/12 12:10:08;;;;;;;;;;;;;;;24.72;42.86;95648.81;5072333;28;19932;-77
2023/06/12 12:12:38;;;;;;;;;;;;;;;24.91;45.70;95640.25;5072360;28;19933;-75
2023/06/12 12:15:06;;;;;;;;;;;;;;;25.17;43.63;95641.56;5071164;28;19933;-75
2023/06/12 12:17:32;;;;;;;;;;;;;;;25.15;39.24;95646.25;5067633;28;19929;-76
2023/06/12 12:20:02;;;;;;;;;;;;;;;25.24;41.21;95629.19;5076473;28;19931;-74
2023/06/12 12:22:30;;;;;;;;;;;;;;;24.67;40.08;95643.28;5079567;28;19928;-72
2023/06/12 12:24:56;;;;;;;;;;;;;;;24.55;38.43;95637.66;5066896;28;19928;-73
2023/06/12 12:27:23;;;;;;;;;;;;;;;24.89;38.52;95630.88;5080721;28;19964;-75
2023/06/12 12:29:49;;;;;;;;;;;;;;;25.00;38.78;95627.72;5065475;28;19933;-76
2023/06/12 12:32:15;;;;;;;;;;;;;;;24.78;38.92;95624.25;5066411;28;19929;-76
2023/06/12 12:34:42;;;;;;;;;;;;;;;24.86;41.83;95624.94;5062824;28;19928;-71
2023/06/12 12:37:08;;;;;;;;;;;;;;;24.86;41.81;95626.75;5080308;28;20341;-72
2023/06/12 12:39:36;;;;;;;;;;;;;;;24.89;42.62;95626.41;5084593;28;19928;-73
2023/06/12 12:42:02;;;;;;;;;;;;;;;24.70;41.20;95627.84;5074786;28;19932;-72
2023/06/12 12:44:28;;;;;;;;;;;;;;;24.66;40.72;95620.44;5082327;28;19924;-76